Time;durP1;ratioP1;P1;durP2;ratioP2;P2;SDS_P1;SDS_P2;PMS_P1;PMS_P2;Temp;Humidity;BMP_temperature;BMP_pressure;BME280_temperature;BME280_humidity;BME280_pressure;Samples;Min_cycle;Max_cycle;Signal;HPM_P1;HPM_P2
2021/03/26 00:00:00;;;;;;;;;;;18.50;37.20;;;;;;460604;259;1080;-45
2021/03/26 00:02:02;;;;;;;;;;;18.40;37.30;;;;;;460399;259;1190;-45
2021/03/26 00:04:03;;;;;;;;;;;18.40;37.30;;;;;;460472;259;1014;-45
2021/03/26 00:06:04;;;;;;;;;;;18.40;37.30;;;;;;460456;259;1069;-45
2021/03/26 00:08:06;;;;;;;;;;;18.50;37.30;;;;;;460402;259;1092;-45
2021/03/26 00:10:07;;;;;;;;;;;18.40;37.20;;;;;;460493;259;1118;-45
2021/03/26 00:12:08;;;;;;;;;;;18.40;37.30;;;;;;460357;259;2208;-45
2021/03/26 00:14:09;;;;;;;;;;;18.40;37.30;;;;;;460256;257;1827;-45
2021/03/26 00:16:11;;;;;;;;;;;18.40;37.30;;;;;;460411;256;1234;-45
2021/03/26 00:18:12;;;;;;;;;;;18.40;37.40;;;;;;460425;259;1175;-45
2021/03/26 00:20:14;;;;;;;;;;;18.40;37.40;;;;;;460443;259;1212;-45
2021/03/26 00:22:15;;;;;;;;;;;18.40;37.40;;;;;;460334;259;1393;-45
2021/03/26 00:24:17;;;;;;;;;;;18.40;37.40;;;;;;460516;259;1000;-45
2021/03/26 00:26:18;;;;;;;;;;;18.40;37.40;;;;;;460514;259;1056;-45
2021/03/26 00:28:19;;;;;;;;;;;18.40;37.40;;;;;;460481;259;1160;-45
2021/03/26 00:30:20;;;;;;;;;;;18.40;37.30;;;;;;460518;259;1070;-45
2021/03/26 00:32:22;;;;;;;;;;;18.40;37.30;;;;;;460374;259;2220;-45
2021/03/26 00:34:23;;;;;;;;;;;18.40;37.40;;;;;;460464;259;1076;-45
2021/03/26 00:36:24;;;;;;;;;;;18.30;37.40;;;;;;460497;258;1139;-45
2021/03/26 00:38:27;;;;;;;;;;;18.30;37.40;;;;;;460504;259;1056;-45
2021/03/26 00:40:28;;;;;;;;;;;18.30;37.50;;;;;;460519;258;1249;-45
2021/03/26 00:42:29;;;;;;;;;;;18.30;37.40;;;;;;460443;259;1141;-45
2021/03/26 00:44:31;;;;;;;;;;;18.30;37.50;;;;;;460522;258;1129;-45
2021/03/26 00:46:32;;;;;;;;;;;18.30;37.50;;;;;;460381;259;1154;-45
2021/03/26 00:48:33;;;;;;;;;;;18.30;37.50;;;;;;460458;259;1216;-45
2021/03/26 00:50:35;;;;;;;;;;;18.30;37.60;;;;;;460409;259;1446;-45
2021/03/26 00:52:36;;;;;;;;;;;18.30;37.50;;;;;;460428;259;2217;-45
2021/03/26 00:54:37;;;;;;;;;;;18.30;37.50;;;;;;460412;259;1116;-45
2021/03/26 00:56:40;;;;;;;;;;;18.30;37.40;;;;;;460398;259;1085;-45
2021/03/26 00:58:40;;;;;;;;;;;18.40;37.30;;;;;;460358;258;1824;-45
2021/03/26 01:00:41;;;;;;;;;;;18.70;36.80;;;;;;460493;258;1059;-45
2021/03/26 01:02:42;;;;;;;;;;;19.00;36.20;;;;;;460486;259;1367;-45
2021/03/26 01:04:43;;;;;;;;;;;19.30;35.70;;;;;;460533;259;1074;-44
2021/03/26 01:06:45;;;;;;;;;;;19.40;35.30;;;;;;460574;259;1076;-45
2021/03/26 01:08:46;;;;;;;;;;;19.50;35.10;;;;;;460663;259;1076;-45
2021/03/26 01:10:47;;;;;;;;;;;19.60;35.00;;;;;;460354;259;1072;-45
2021/03/26 01:12:49;;;;;;;;;;;19.70;34.90;;;;;;460419;259;2216;-45
2021/03/26 01:14:50;;;;;;;;;;;19.70;34.80;;;;;;460378;259;1127;-45
2021/03/26 01:16:51;;;;;;;;;;;19.80;34.70;;;;;;460422;259;1119;-45
2021/03/26 01:18:52;;;;;;;;;;;19.80;34.70;;;;;;460461;259;1196;-45
2021/03/26 01:20:54;;;;;;;;;;;19.90;34.60;;;;;;460377;259;1074;-45
2021/03/26 01:22:55;;;;;;;;;;;19.90;34.50;;;;;;461083;257;1059;-45
2021/03/26 01:24:56;;;;;;;;;;;19.90;34.40;;;;;;460488;259;965;-45
2021/03/26 01:26:58;;;;;;;;;;;20.00;34.40;;;;;;460488;259;1106;-45
2021/03/26 01:28:59;;;;;;;;;;;20.10;34.40;;;;;;460422;259;1045;-45
2021/03/26 01:31:00;;;;;;;;;;;20.10;34.30;;;;;;460435;259;1103;-45
2021/03/26 01:33:01;;;;;;;;;;;20.10;34.20;;;;;;460409;259;2138;-45
2021/03/26 01:35:03;;;;;;;;;;;20.10;34.10;;;;;;460391;259;1057;-45
2021/03/26 01:37:04;;;;;;;;;;;20.20;34.10;;;;;;460494;259;1085;-45
2021/03/26 01:39:07;;;;;;;;;;;20.20;34.10;;;;;;460408;259;1079;-45
2021/03/26 01:41:08;;;;;;;;;;;20.30;34.00;;;;;;460568;258;1122;-45
2021/03/26 01:43:09;;;;;;;;;;;20.30;34.00;;;;;;460639;259;1128;-45
2021/03/26 01:45:10;;;;;;;;;;;20.30;33.90;;;;;;460447;259;1048;-45
2021/03/26 01:47:12;;;;;;;;;;;20.30;33.80;;;;;;460363;259;1155;-45
2021/03/26 01:49:13;;;;;;;;;;;20.40;33.90;;;;;;460460;259;1093;-45
2021/03/26 01:51:14;;;;;;;;;;;20.40;33.80;;;;;;460345;259;2208;-45
2021/03/26 01:53:16;;;;;;;;;;;20.40;33.80;;;;;;460468;259;1066;-45
2021/03/26 01:55:17;;;;;;;;;;;20.40;33.70;;;;;;460564;259;1056;-45
2021/03/26 01:57:18;;;;;;;;;;;20.50;33.60;;;;;;460424;259;985;-45
2021/03/26 01:59:19;;;;;;;;;;;20.50;33.70;;;;;;460398;259;1126;-45
2021/03/26 02:01:21;;;;;;;;;;;20.50;33.60;;;;;;460357;259;1229;-45
2021/03/26 02:03:22;;;;;;;;;;;20.50;33.60;;;;;;460488;259;1165;-45
2021/03/26 02:05:23;;;;;;;;;;;20.60;33.60;;;;;;460810;259;1058;-45
2021/03/26 02:07:25;;;;;;;;;;;20.60;33.50;;;;;;460743;259;1069;-45
2021/03/26 02:09:26;;;;;;;;;;;20.60;33.50;;;;;;460557;259;1108;-45
2021/03/26 02:11:27;;;;;;;;;;;20.60;33.50;;;;;;460411;259;2216;-45
2021/03/26 02:13:28;;;;;;;;;;;20.70;33.50;;;;;;460525;259;1055;-45
2021/03/26 02:15:30;;;;;;;;;;;20.70;33.40;;;;;;460457;259;1054;-45
2021/03/26 02:17:31;;;;;;;;;;;20.70;33.50;;;;;;460472;259;1060;-45
2021/03/26 02:19:32;;;;;;;;;;;20.70;33.40;;;;;;460532;259;1227;-45
2021/03/26 02:21:36;;;;;;;;;;;20.70;33.40;;;;;;460472;259;1091;-45
2021/03/26 02:23:37;;;;;;;;;;;20.70;33.40;;;;;;460420;258;1896;-45
2021/03/26 02:25:38;;;;;;;;;;;20.80;33.40;;;;;;460348;259;1079;-45
2021/03/26 02:27:39;;;;;;;;;;;20.80;33.40;;;;;;460395;259;1089;-45
2021/03/26 02:29:41;;;;;;;;;;;20.80;33.30;;;;;;460337;259;1327;-45
2021/03/26 02:31:42;;;;;;;;;;;20.80;33.30;;;;;;460309;259;2197;-45
2021/03/26 02:33:43;;;;;;;;;;;20.80;33.20;;;;;;460411;259;1219;-45
2021/03/26 02:35:44;;;;;;;;;;;20.80;33.20;;;;;;460678;259;1095;-45
2021/03/26 02:37:46;;;;;;;;;;;20.90;33.30;;;;;;460698;259;961;-45
2021/03/26 02:39:47;;;;;;;;;;;20.90;33.20;;;;;;460520;259;1078;-45
2021/03/26 02:41:48;;;;;;;;;;;20.90;33.20;;;;;;460478;259;1174;-45
2021/03/26 02:43:51;;;;;;;;;;;20.90;33.20;;;;;;460651;259;1060;-45
2021/03/26 02:45:53;;;;;;;;;;;20.90;33.20;;;;;;460498;259;1090;-45
2021/03/26 02:47:54;;;;;;;;;;;20.90;33.20;;;;;;460508;259;1061;-45
2021/03/26 02:49:55;;;;;;;;;;;20.90;33.20;;;;;;460580;258;1187;-45
2021/03/26 02:51:57;;;;;;;;;;;20.90;33.20;;;;;;460391;259;2211;-45
2021/03/26 02:53:58;;;;;;;;;;;20.90;33.20;;;;;;460396;259;1021;-45
2021/03/26 02:55:59;;;;;;;;;;;21.00;33.20;;;;;;460558;259;1159;-45
2021/03/26 02:58:01;;;;;;;;;;;20.90;33.20;;;;;;460572;259;1107;-45
2021/03/26 03:00:02;;;;;;;;;;;21.00;33.20;;;;;;460465;258;1073;-45
2021/03/26 03:02:03;;;;;;;;;;;21.00;33.20;;;;;;460448;259;1090;-45
2021/03/26 03:04:05;;;;;;;;;;;21.00;33.20;;;;;;460727;257;1177;-45
2021/03/26 03:06:06;;;;;;;;;;;21.00;33.20;;;;;;460641;258;1068;-45
2021/03/26 03:08:07;;;;;;;;;;;21.00;33.20;;;;;;460557;259;1217;-45
2021/03/26 03:10:08;;;;;;;;;;;20.90;33.20;;;;;;460542;259;988;-45
2021/03/26 03:12:10;;;;;;;;;;;21.00;33.20;;;;;;460473;259;2157;-45
2021/03/26 03:14:11;;;;;;;;;;;21.00;33.20;;;;;;460519;258;1123;-45
2021/03/26 03:16:12;;;;;;;;;;;21.00;33.20;;;;;;460551;259;1053;-45
2021/03/26 03:18:14;;;;;;;;;;;21.00;33.20;;;;;;460642;259;1129;-45
2021/03/26 03:20:15;;;;;;;;;;;21.00;33.20;;;;;;460595;259;1297;-45
2021/03/26 03:22:16;;;;;;;;;;;21.00;33.10;;;;;;460576;259;1261;-45
2021/03/26 03:24:17;;;;;;;;;;;21.00;33.10;;;;;;460573;259;1066;-45
2021/03/26 03:26:19;;;;;;;;;;;21.10;33.20;;;;;;460538;259;1091;-45
2021/03/26 03:28:20;;;;;;;;;;;21.00;33.10;;;;;;460647;259;1075;-45
2021/03/26 03:30:21;;;;;;;;;;;21.00;33.10;;;;;;460643;259;1098;-45
2021/03/26 03:32:23;;;;;;;;;;;21.10;33.20;;;;;;460727;259;2154;-45
2021/03/26 03:34:24;;;;;;;;;;;21.10;33.10;;;;;;460814;259;1310;-45
2021/03/26 03:36:25;;;;;;;;;;;21.10;33.10;;;;;;460675;259;1105;-45
2021/03/26 03:38:26;;;;;;;;;;;21.10;33.10;;;;;;460906;259;1073;-45
2021/03/26 03:40:28;;;;;;;;;;;21.10;33.00;;;;;;460709;259;1116;-45
2021/03/26 03:42:29;;;;;;;;;;;21.10;33.10;;;;;;460621;259;1074;-45
2021/03/26 03:44:30;;;;;;;;;;;21.10;33.10;;;;;;460659;259;1051;-45
2021/03/26 03:46:32;;;;;;;;;;;21.10;33.10;;;;;;460681;259;1069;-45
2021/03/26 03:48:33;;;;;;;;;;;21.10;33.10;;;;;;460692;259;1063;-45
2021/03/26 03:50:34;;;;;;;;;;;21.10;33.10;;;;;;460599;259;1207;-45
2021/03/26 03:52:35;;;;;;;;;;;21.10;33.10;;;;;;460609;259;2165;-45
2021/03/26 03:54:37;;;;;;;;;;;21.10;33.10;;;;;;460743;259;1058;-45
2021/03/26 03:56:38;;;;;;;;;;;21.20;33.10;;;;;;460560;259;1066;-45
2021/03/26 03:58:39;;;;;;;;;;;21.20;33.10;;;;;;460657;259;1052;-45
2021/03/26 04:00:40;;;;;;;;;;;21.10;33.10;;;;;;460658;259;1187;-45
2021/03/26 04:02:42;;;;;;;;;;;21.20;33.10;;;;;;460612;259;1253;-46
2021/03/26 04:04:43;;;;;;;;;;;21.20;33.10;;;;;;460681;259;1182;-45
2021/03/26 04:06:44;;;;;;;;;;;21.20;33.10;;;;;;460643;259;1015;-45
2021/03/26 04:08:46;;;;;;;;;;;21.20;33.10;;;;;;460647;259;1091;-45
2021/03/26 04:10:47;;;;;;;;;;;21.20;33.00;;;;;;460771;257;1067;-45
2021/03/26 04:12:48;;;;;;;;;;;21.20;33.00;;;;;;460608;259;2204;-45
2021/03/26 04:14:49;;;;;;;;;;;21.20;33.00;;;;;;460566;257;1058;-45
2021/03/26 04:16:51;;;;;;;;;;;21.20;33.00;;;;;;460541;259;1065;-45
2021/03/26 04:18:52;;;;;;;;;;;21.20;33.00;;;;;;460675;259;1265;-45
2021/03/26 04:20:53;;;;;;;;;;;21.20;33.10;;;;;;460665;259;1171;-45
2021/03/26 04:22:54;;;;;;;;;;;21.20;33.10;;;;;;460631;259;1283;-45
2021/03/26 04:24:56;;;;;;;;;;;21.20;33.10;;;;;;460840;259;1055;-45
2021/03/26 04:26:58;;;;;;;;;;;21.20;33.00;;;;;;460743;259;1058;-45
2021/03/26 04:29:00;;;;;;;;;;;21.20;33.10;;;;;;460696;259;1830;-45
2021/03/26 04:31:01;;;;;;;;;;;21.20;33.00;;;;;;460711;258;1083;-45
2021/03/26 04:33:02;;;;;;;;;;;21.20;33.00;;;;;;460635;259;2220;-45
2021/03/26 04:35:04;;;;;;;;;;;21.30;33.00;;;;;;460930;258;1165;-45
2021/03/26 04:37:05;;;;;;;;;;;21.30;33.00;;;;;;460689;258;1112;-45
2021/03/26 04:39:06;;;;;;;;;;;21.30;33.00;;;;;;460581;259;1098;-45
2021/03/26 04:41:07;;;;;;;;;;;21.30;33.00;;;;;;460592;259;1223;-45
2021/03/26 04:43:09;;;;;;;;;;;21.30;33.00;;;;;;460591;259;1157;-45
2021/03/26 04:45:10;;;;;;;;;;;21.30;33.00;;;;;;460838;258;1139;-45
2021/03/26 04:47:11;;;;;;;;;;;21.30;33.00;;;;;;460634;259;1110;-45
2021/03/26 04:49:13;;;;;;;;;;;21.30;33.00;;;;;;460771;259;1050;-45
2021/03/26 04:51:14;;;;;;;;;;;21.30;33.00;;;;;;460670;259;1208;-45
2021/03/26 04:53:15;;;;;;;;;;;21.30;33.00;;;;;;460692;259;2169;-45
2021/03/26 04:55:16;;;;;;;;;;;21.30;33.00;;;;;;460657;259;1094;-45
2021/03/26 04:57:18;;;;;;;;;;;21.30;33.00;;;;;;460676;259;1045;-45
2021/03/26 04:59:19;;;;;;;;;;;21.30;33.00;;;;;;460566;259;1114;-45
2021/03/26 05:01:20;;;;;;;;;;;21.30;33.00;;;;;;460555;259;1093;-45
2021/03/26 05:03:22;;;;;;;;;;;21.30;33.00;;;;;;460576;259;1094;-45
2021/03/26 05:05:23;;;;;;;;;;;21.30;33.00;;;;;;460573;259;1179;-45
2021/03/26 05:07:24;;;;;;;;;;;21.30;33.00;;;;;;460657;259;1250;-45
2021/03/26 05:09:25;;;;;;;;;;;21.30;33.00;;;;;;460566;259;1150;-45
2021/03/26 05:11:27;;;;;;;;;;;21.30;33.00;;;;;;460485;259;1319;-45
2021/03/26 05:13:28;;;;;;;;;;;21.30;33.00;;;;;;460605;259;2205;-45
2021/03/26 05:15:29;;;;;;;;;;;21.40;33.00;;;;;;460780;259;1052;-45
2021/03/26 05:17:30;;;;;;;;;;;21.40;33.00;;;;;;460501;259;1140;-45
2021/03/26 05:19:32;;;;;;;;;;;21.40;33.00;;;;;;460761;257;1197;-45
2021/03/26 05:21:33;;;;;;;;;;;21.40;33.00;;;;;;460459;259;1582;-45
2021/03/26 05:23:34;;;;;;;;;;;21.40;33.00;;;;;;460784;259;1044;-45
2021/03/26 05:25:36;;;;;;;;;;;21.40;33.10;;;;;;460561;259;1055;-45
2021/03/26 05:27:37;;;;;;;;;;;21.40;33.10;;;;;;460338;259;1232;-45
2021/03/26 05:29:38;;;;;;;;;;;21.40;33.00;;;;;;460438;259;1266;-45
2021/03/26 05:31:39;;;;;;;;;;;21.40;33.00;;;;;;460426;258;1037;-45
2021/03/26 05:33:41;;;;;;;;;;;21.40;33.10;;;;;;460471;259;2205;-45
2021/03/26 05:35:42;;;;;;;;;;;21.30;33.00;;;;;;460498;259;1209;-45
2021/03/26 05:37:43;;;;;;;;;;;21.40;33.10;;;;;;460606;259;1075;-45
2021/03/26 05:39:44;;;;;;;;;;;21.40;33.10;;;;;;460648;258;1171;-45
2021/03/26 05:41:46;;;;;;;;;;;21.40;33.10;;;;;;460461;259;1209;-45
2021/03/26 05:43:47;;;;;;;;;;;21.40;33.00;;;;;;460547;258;1068;-45
2021/03/26 05:45:48;;;;;;;;;;;21.40;33.10;;;;;;460585;259;1065;-45
2021/03/26 05:47:50;;;;;;;;;;;21.40;33.00;;;;;;460526;259;1230;-45
2021/03/26 05:49:51;;;;;;;;;;;21.40;33.00;;;;;;460607;259;1069;-45
2021/03/26 05:51:52;;;;;;;;;;;21.40;33.00;;;;;;460489;259;1191;-45
2021/03/26 05:53:53;;;;;;;;;;;21.40;33.00;;;;;;460476;259;2157;-45
2021/03/26 05:55:55;;;;;;;;;;;21.40;33.10;;;;;;460499;259;1081;-45
2021/03/26 05:57:56;;;;;;;;;;;21.40;33.00;;;;;;460502;259;1127;-45
2021/03/26 05:59:57;;;;;;;;;;;21.40;33.00;;;;;;460460;259;1095;-45
2021/03/26 06:01:59;;;;;;;;;;;21.40;33.10;;;;;;460492;259;1119;-45
2021/03/26 06:04:00;;;;;;;;;;;21.40;33.00;;;;;;460453;259;1060;-45
2021/03/26 06:06:01;;;;;;;;;;;21.40;33.00;;;;;;460624;259;1146;-45
2021/03/26 06:08:04;;;;;;;;;;;21.50;33.00;;;;;;460537;259;1162;-45
2021/03/26 06:10:05;;;;;;;;;;;21.40;33.00;;;;;;460613;258;1618;-45
2021/03/26 06:12:06;;;;;;;;;;;21.40;33.10;;;;;;460648;259;1102;-45
2021/03/26 06:14:07;;;;;;;;;;;21.40;33.10;;;;;;460455;259;2203;-45
2021/03/26 06:16:09;;;;;;;;;;;21.40;33.10;;;;;;460457;259;1074;-45
2021/03/26 06:18:10;;;;;;;;;;;21.40;33.00;;;;;;460515;259;1092;-45
2021/03/26 06:20:11;;;;;;;;;;;21.50;33.00;;;;;;460472;259;1109;-45
2021/03/26 06:22:13;;;;;;;;;;;21.40;33.00;;;;;;460437;259;1156;-45
2021/03/26 06:24:14;;;;;;;;;;;21.50;33.10;;;;;;460977;257;1929;-45
2021/03/26 06:26:15;;;;;;;;;;;21.40;33.00;;;;;;470851;253;1159;-45
2021/03/26 06:28:16;;;;;;;;;;;21.50;33.00;;;;;;457488;259;1106;-45
2021/03/26 06:30:18;;;;;;;;;;;21.50;33.00;;;;;;472186;252;1508;-45
2021/03/26 06:32:19;;;;;;;;;;;21.50;33.10;;;;;;472542;251;2020;-45
2021/03/26 06:34:20;;;;;;;;;;;21.50;33.00;;;;;;465297;256;2209;-45
2021/03/26 06:36:21;;;;;;;;;;;21.50;33.10;;;;;;472395;252;1145;-45
2021/03/26 06:38:23;;;;;;;;;;;21.50;33.00;;;;;;465436;256;1062;-45
2021/03/26 06:40:24;;;;;;;;;;;21.50;33.00;;;;;;471967;252;1153;-45
2021/03/26 06:42:25;;;;;;;;;;;21.50;33.10;;;;;;464193;256;1167;-45
2021/03/26 06:44:27;;;;;;;;;;;21.50;33.00;;;;;;471889;252;1341;-46
2021/03/26 06:46:28;;;;;;;;;;;21.50;33.10;;;;;;472217;249;1134;-45
2021/03/26 06:48:29;;;;;;;;;;;21.50;33.10;;;;;;462994;255;1178;-45
2021/03/26 06:50:30;;;;;;;;;;;21.50;33.00;;;;;;456953;258;1686;-45
2021/03/26 06:52:32;;;;;;;;;;;21.50;33.00;;;;;;462632;257;1437;-45
2021/03/26 06:54:33;;;;;;;;;;;21.50;33.00;;;;;;462664;257;2132;-45
2021/03/26 06:56:35;;;;;;;;;;;21.50;33.00;;;;;;462598;257;1135;-45
2021/03/26 06:58:36;;;;;;;;;;;21.50;33.00;;;;;;462697;257;1100;-45
2021/03/26 07:00:37;;;;;;;;;;;21.50;33.00;;;;;;462638;257;1076;-45
2021/03/26 07:02:38;;;;;;;;;;;21.50;33.00;;;;;;462591;257;1079;-45
2021/03/26 07:04:40;;;;;;;;;;;21.50;33.00;;;;;;462550;257;1149;-45
2021/03/26 07:06:43;;;;;;;;;;;21.60;33.00;;;;;;462485;257;1704;-45
2021/03/26 07:08:43;;;;;;;;;;;21.50;33.00;;;;;;462361;257;1404;-45
2021/03/26 07:10:44;;;;;;;;;;;21.50;33.00;;;;;;462525;257;1240;-45
2021/03/26 07:12:45;;;;;;;;;;;21.50;33.00;;;;;;462373;257;1168;-45
2021/03/26 07:14:46;;;;;;;;;;;21.50;33.00;;;;;;462314;257;2218;-45
2021/03/26 07:16:48;;;;;;;;;;;21.50;32.90;;;;;;462392;257;1145;-45
2021/03/26 07:18:49;;;;;;;;;;;21.50;33.00;;;;;;462548;257;1044;-45
2021/03/26 07:20:50;;;;;;;;;;;21.60;33.00;;;;;;462517;257;1128;-45
2021/03/26 07:22:52;;;;;;;;;;;21.60;33.00;;;;;;462512;257;1191;-45
2021/03/26 07:24:53;;;;;;;;;;;21.50;33.00;;;;;;462465;257;1093;-45
2021/03/26 07:26:54;;;;;;;;;;;21.50;33.00;;;;;;462509;257;1183;-45
2021/03/26 07:28:57;;;;;;;;;;;21.50;33.00;;;;;;462471;257;1307;-45
2021/03/26 07:30:58;;;;;;;;;;;21.60;33.00;;;;;;462560;257;2322;-45
2021/03/26 07:32:58;;;;;;;;;;;21.60;33.00;;;;;;462411;258;1428;-45
2021/03/26 07:35:00;;;;;;;;;;;21.60;33.00;;;;;;462437;257;2195;-45
2021/03/26 07:37:01;;;;;;;;;;;21.60;33.00;;;;;;462397;257;1203;-45
2021/03/26 07:39:02;;;;;;;;;;;21.60;33.00;;;;;;462388;256;1350;-45
2021/03/26 07:41:04;;;;;;;;;;;21.60;33.00;;;;;;462296;257;1281;-45
2021/03/26 07:43:05;;;;;;;;;;;21.60;33.00;;;;;;462232;257;1787;-45
2021/03/26 07:45:06;;;;;;;;;;;21.60;33.00;;;;;;462527;257;1101;-45
2021/03/26 07:47:08;;;;;;;;;;;21.60;33.00;;;;;;462409;257;1359;-45
2021/03/26 07:49:09;;;;;;;;;;;21.60;33.00;;;;;;462349;257;1078;-45
2021/03/26 07:51:11;;;;;;;;;;;21.60;33.00;;;;;;462315;257;1111;-46
2021/03/26 07:53:12;;;;;;;;;;;21.60;33.00;;;;;;462461;257;2206;-45
2021/03/26 07:55:13;;;;;;;;;;;21.60;33.00;;;;;;462475;257;1102;-45
2021/03/26 07:57:14;;;;;;;;;;;21.60;33.00;;;;;;462374;257;1621;-45
2021/03/26 07:59:16;;;;;;;;;;;21.60;33.00;;;;;;462183;257;1147;-45
2021/03/26 08:01:17;;;;;;;;;;;21.70;32.90;;;;;;462087;257;1517;-45
2021/03/26 08:03:19;;;;;;;;;;;21.60;33.00;;;;;;462009;257;1157;-46
2021/03/26 08:05:20;;;;;;;;;;;21.60;32.90;;;;;;462081;257;1173;-45
2021/03/26 08:07:21;;;;;;;;;;;21.60;33.00;;;;;;461986;257;1351;-45
2021/03/26 08:09:22;;;;;;;;;;;21.60;33.00;;;;;;462254;257;1086;-45
2021/03/26 08:11:24;;;;;;;;;;;21.70;33.00;;;;;;462176;257;1187;-45
2021/03/26 08:13:25;;;;;;;;;;;21.70;33.00;;;;;;462256;257;2207;-45
2021/03/26 08:15:26;;;;;;;;;;;21.60;32.90;;;;;;462220;257;1092;-45
2021/03/26 08:17:28;;;;;;;;;;;21.60;33.00;;;;;;462301;257;1097;-45
2021/03/26 08:19:29;;;;;;;;;;;21.70;32.90;;;;;;462247;257;1145;-45
2021/03/26 08:21:30;;;;;;;;;;;21.60;33.00;;;;;;462221;257;1116;-45
2021/03/26 08:23:31;;;;;;;;;;;21.20;33.60;;;;;;462239;257;1528;-45
2021/03/26 08:25:33;;;;;;;;;;;20.70;34.40;;;;;;462063;257;1090;-45
2021/03/26 08:27:34;;;;;;;;;;;20.40;35.10;;;;;;462195;257;1168;-45
2021/03/26 08:29:35;;;;;;;;;;;20.10;35.60;;;;;;462224;256;1156;-45
2021/03/26 08:31:36;;;;;;;;;;;19.90;36.00;;;;;;462180;254;1378;-45
2021/03/26 08:33:38;;;;;;;;;;;19.80;36.20;;;;;;462074;257;2183;-45
2021/03/26 08:35:39;;;;;;;;;;;19.60;36.50;;;;;;462159;257;1237;-45
2021/03/26 08:37:40;;;;;;;;;;;19.60;36.70;;;;;;462286;257;1151;-45
2021/03/26 08:39:42;;;;;;;;;;;19.50;36.80;;;;;;462289;257;1133;-45
2021/03/26 08:41:43;;;;;;;;;;;19.40;36.90;;;;;;462230;257;1511;-45
2021/03/26 08:43:44;;;;;;;;;;;19.40;37.10;;;;;;462225;257;1156;-45
2021/03/26 08:45:46;;;;;;;;;;;19.30;37.10;;;;;;462191;257;1339;-45
2021/03/26 08:47:47;;;;;;;;;;;19.30;37.20;;;;;;462110;257;1265;-45
2021/03/26 08:49:48;;;;;;;;;;;19.20;37.30;;;;;;462058;257;1111;-45
2021/03/26 08:51:50;;;;;;;;;;;19.10;37.40;;;;;;461995;257;1205;-45
2021/03/26 08:53:51;;;;;;;;;;;19.10;37.40;;;;;;462234;257;2215;-45
2021/03/26 08:55:52;;;;;;;;;;;19.10;37.30;;;;;;462320;257;1117;-45
2021/03/26 08:57:53;;;;;;;;;;;19.10;37.40;;;;;;462260;257;1100;-45
2021/03/26 08:59:55;;;;;;;;;;;19.10;37.40;;;;;;462320;257;1105;-45
2021/03/26 09:01:56;;;;;;;;;;;19.10;37.40;;;;;;462275;257;1446;-45
2021/03/26 09:03:57;;;;;;;;;;;19.00;37.50;;;;;;462233;257;1077;-45
2021/03/26 09:05:59;;;;;;;;;;;19.00;37.60;;;;;;462212;257;1116;-45
2021/03/26 09:08:00;;;;;;;;;;;19.00;37.60;;;;;;462132;257;1188;-45
2021/03/26 09:10:02;;;;;;;;;;;18.90;37.60;;;;;;462082;257;1147;-45
2021/03/26 09:12:03;;;;;;;;;;;18.90;37.70;;;;;;462063;257;1119;-45
2021/03/26 09:14:04;;;;;;;;;;;18.90;37.70;;;;;;462164;257;2199;-45
2021/03/26 09:16:06;;;;;;;;;;;18.90;37.70;;;;;;462114;257;1128;-45
2021/03/26 09:18:07;;;;;;;;;;;18.90;37.80;;;;;;462085;257;1191;-45
2021/03/26 09:20:08;;;;;;;;;;;18.90;37.80;;;;;;462177;257;1157;-45
2021/03/26 09:22:09;;;;;;;;;;;18.80;37.80;;;;;;462233;257;1252;-45
2021/03/26 09:24:11;;;;;;;;;;;18.80;37.90;;;;;;462259;257;1197;-45
2021/03/26 09:26:12;;;;;;;;;;;18.80;37.90;;;;;;462098;257;1396;-45
2021/03/26 09:28:14;;;;;;;;;;;18.80;37.90;;;;;;462422;257;1447;-45
2021/03/26 09:30:15;;;;;;;;;;;18.70;37.90;;;;;;462163;257;1165;-44
2021/03/26 09:32:16;;;;;;;;;;;18.80;37.90;;;;;;462136;257;1207;-45
2021/03/26 09:34:18;;;;;;;;;;;18.70;37.90;;;;;;462405;257;2199;-45
2021/03/26 09:36:19;;;;;;;;;;;18.70;38.00;;;;;;462185;257;1247;-45
2021/03/26 09:38:20;;;;;;;;;;;18.70;37.90;;;;;;462275;257;1276;-45
2021/03/26 09:40:22;;;;;;;;;;;18.70;37.90;;;;;;462264;257;1093;-45
2021/03/26 09:42:24;;;;;;;;;;;18.70;37.90;;;;;;462293;256;1231;-45
2021/03/26 09:44:24;;;;;;;;;;;18.70;37.90;;;;;;462157;257;1329;-45
2021/03/26 09:46:25;;;;;;;;;;;18.70;37.90;;;;;;462313;257;1100;-45
2021/03/26 09:48:27;;;;;;;;;;;18.70;37.90;;;;;;462153;257;1139;-45
2021/03/26 09:50:28;;;;;;;;;;;18.70;38.00;;;;;;462071;257;1113;-45
2021/03/26 09:52:30;;;;;;;;;;;18.60;38.00;;;;;;461491;257;1081;-45
2021/03/26 09:54:31;;;;;;;;;;;18.60;38.00;;;;;;462176;257;2206;-45
2021/03/26 09:56:32;;;;;;;;;;;18.60;38.10;;;;;;462319;257;1082;-45
2021/03/26 09:58:35;;;;;;;;;;;18.60;38.10;;;;;;462304;257;1209;-45
2021/03/26 10:00:35;;;;;;;;;;;18.50;38.00;;;;;;462219;257;1594;-45
2021/03/26 10:02:36;;;;;;;;;;;18.60;38.10;;;;;;462303;257;1117;-45
2021/03/26 10:04:38;;;;;;;;;;;18.60;38.00;;;;;;462215;257;1076;-45
2021/03/26 10:06:39;;;;;;;;;;;18.60;38.10;;;;;;462146;257;1134;-45
2021/03/26 10:08:53;;;;;;;;;;;18.50;38.10;;;;;;462203;257;1195;-45
2021/03/26 10:10:49;;;;;;;;;;;18.50;38.10;;;;;;461884;258;1947;-45
2021/03/26 10:12:51;;;;;;;;;;;18.50;38.20;;;;;;462027;257;1193;-45
2021/03/26 10:14:52;;;;;;;;;;;18.50;38.10;;;;;;461983;257;2143;-45
2021/03/26 10:16:53;;;;;;;;;;;18.50;38.20;;;;;;462003;257;1187;-45
2021/03/26 10:18:55;;;;;;;;;;;18.40;38.20;;;;;;462165;257;1150;-45
2021/03/26 10:20:56;;;;;;;;;;;18.50;38.20;;;;;;462001;257;1136;-45
2021/03/26 10:22:57;;;;;;;;;;;18.40;38.20;;;;;;462204;257;1081;-44
2021/03/26 10:25:00;;;;;;;;;;;18.40;38.20;;;;;;462191;257;1195;-45
2021/03/26 10:27:01;;;;;;;;;;;18.40;38.20;;;;;;462108;257;1334;-45
2021/03/26 10:29:02;;;;;;;;;;;18.40;38.20;;;;;;461999;257;1109;-45
2021/03/26 10:31:04;;;;;;;;;;;18.40;38.10;;;;;;462265;257;1075;-45
2021/03/26 10:33:05;;;;;;;;;;;18.40;38.20;;;;;;462222;257;1108;-45
2021/03/26 10:35:06;;;;;;;;;;;18.30;38.20;;;;;;462338;257;2211;-45
2021/03/26 10:37:08;;;;;;;;;;;18.40;38.20;;;;;;462335;257;1156;-45
2021/03/26 10:39:09;;;;;;;;;;;18.40;38.20;;;;;;462307;257;1188;-45
2021/03/26 10:41:12;;;;;;;;;;;18.40;38.20;;;;;;462421;257;1393;-45
2021/03/26 10:43:12;;;;;;;;;;;18.40;38.20;;;;;;462344;258;1181;-45
2021/03/26 10:45:13;;;;;;;;;;;18.30;38.20;;;;;;462100;257;1211;-45
2021/03/26 10:47:14;;;;;;;;;;;18.40;38.20;;;;;;462203;257;1241;-45
2021/03/26 10:49:16;;;;;;;;;;;18.40;38.20;;;;;;462214;257;1076;-45
2021/03/26 10:51:17;;;;;;;;;;;18.30;38.20;;;;;;462060;254;1416;-45
2021/03/26 10:53:18;;;;;;;;;;;18.30;38.20;;;;;;462353;257;1058;-45
2021/03/26 10:55:19;;;;;;;;;;;18.40;38.10;;;;;;462417;257;2203;-45
2021/03/26 10:57:21;;;;;;;;;;;18.40;38.00;;;;;;462362;257;1249;-45
2021/03/26 10:59:22;;;;;;;;;;;18.40;38.00;;;;;;462356;257;1156;-45
2021/03/26 11:01:24;;;;;;;;;;;18.40;38.00;;;;;;462230;257;1452;-45
2021/03/26 11:03:25;;;;;;;;;;;18.40;38.00;;;;;;462186;257;1130;-45
2021/03/26 11:05:26;;;;;;;;;;;18.40;38.10;;;;;;462243;257;1364;-45
2021/03/26 11:07:27;;;;;;;;;;;18.40;38.10;;;;;;462199;258;1105;-45
2021/03/26 11:09:29;;;;;;;;;;;18.40;38.10;;;;;;461397;257;1182;-45
2021/03/26 11:11:30;;;;;;;;;;;18.30;38.10;;;;;;462224;257;1305;-45
2021/03/26 11:13:31;;;;;;;;;;;18.30;38.10;;;;;;462294;257;1120;-45
2021/03/26 11:15:33;;;;;;;;;;;18.30;38.00;;;;;;462253;257;2230;-45
2021/03/26 11:17:34;;;;;;;;;;;18.30;38.10;;;;;;462290;258;1126;-45
2021/03/26 11:19:35;;;;;;;;;;;18.30;38.10;;;;;;462388;257;1172;-45
2021/03/26 11:21:37;;;;;;;;;;;18.30;38.10;;;;;;462367;257;1263;-45
2021/03/26 11:23:38;;;;;;;;;;;18.30;38.20;;;;;;462436;257;1081;-45
2021/03/26 11:25:39;;;;;;;;;;;18.20;38.10;;;;;;462429;257;2188;-45
2021/03/26 11:27:40;;;;;;;;;;;18.20;38.30;;;;;;462316;257;1158;-45
2021/03/26 11:29:42;;;;;;;;;;;18.10;38.40;;;;;;462227;257;1091;-45
2021/03/26 11:31:43;;;;;;;;;;;18.10;38.50;;;;;;462242;257;1116;-45
2021/03/26 11:33:45;;;;;;;;;;;18.10;38.60;;;;;;462141;257;1113;-45
2021/03/26 11:35:46;;;;;;;;;;;18.00;38.60;;;;;;462183;257;2198;-45
2021/03/26 11:37:48;;;;;;;;;;;18.00;38.70;;;;;;462203;257;1254;-45
2021/03/26 11:39:49;;;;;;;;;;;18.00;38.80;;;;;;462409;257;1382;-45
2021/03/26 11:41:50;;;;;;;;;;;18.00;38.60;;;;;;462251;257;1087;-45
2021/03/26 11:43:51;;;;;;;;;;;18.10;38.50;;;;;;462463;257;1245;-45
2021/03/26 11:45:52;;;;;;;;;;;18.00;38.60;;;;;;462297;257;1268;-45
2021/03/26 11:47:54;;;;;;;;;;;18.00;38.50;;;;;;462410;257;1126;-45
2021/03/26 11:49:55;;;;;;;;;;;18.10;38.50;;;;;;462277;257;1188;-45
2021/03/26 11:51:56;;;;;;;;;;;18.10;38.50;;;;;;462398;257;1243;-45
2021/03/26 11:53:58;;;;;;;;;;;18.10;38.30;;;;;;462346;257;1186;-45
2021/03/26 11:55:59;;;;;;;;;;;18.10;38.20;;;;;;462248;257;2212;-45